createdAt,value
2023-01-30T00:00:31.346Z,8.63
2023-01-30T00:05:32.774Z,11.23
2023-01-30T00:10:34.239Z,11.63
2023-01-30T00:15:35.712Z,9.93
2023-01-30T00:20:37.198Z,10.27
2023-01-30T00:25:38.854Z,9.80
2023-01-30T00:30:40.372Z,5.32
2023-01-30T00:35:41.817Z,9.25
2023-01-30T00:40:43.275Z,9.20
2023-01-30T00:45:44.959Z,8.65
2023-01-30T00:50:46.452Z,7.93
2023-01-30T00:55:47.910Z,9.82
2023-01-30T01:00:49.335Z,9.95
2023-01-30T01:05:50.746Z,9.55
2023-01-30T01:10:52.199Z,9.52
2023-01-30T01:15:53.667Z,7.22
2023-01-30T01:20:55.099Z,10.07
2023-01-30T01:25:56.511Z,10.52
2023-01-30T01:30:57.981Z,9.75
2023-01-30T01:35:59.521Z,8.93
2023-01-30T01:41:01.008Z,8.32
2023-01-30T01:46:02.502Z,6.35
2023-01-30T01:51:04.020Z,8.68
2023-01-30T01:56:05.480Z,7.97
2023-01-30T02:01:07.004Z,9.07
2023-01-30T02:06:08.491Z,8.95
2023-01-30T02:11:09.945Z,9.85
2023-01-30T02:16:11.426Z,9.48
2023-01-30T02:21:12.933Z,9.55
2023-01-30T02:26:14.416Z,8.18
2023-01-30T02:31:15.931Z,9.65
2023-01-30T02:36:17.435Z,9.73
2023-01-30T02:41:18.850Z,9.88
2023-01-30T02:46:20.366Z,9.70
2023-01-30T02:51:22.048Z,9.52
2023-01-30T02:56:23.521Z,7.28
2023-01-30T03:01:24.990Z,9.70
2023-01-30T03:06:26.457Z,9.00
2023-01-30T03:11:27.923Z,7.65
2023-01-30T03:16:29.780Z,8.52
2023-01-30T03:21:31.242Z,8.43
2023-01-30T03:26:32.759Z,8.50
2023-01-30T03:31:34.364Z,8.02
2023-01-30T03:36:35.893Z,8.25
2023-01-30T03:41:37.535Z,6.65
2023-01-30T03:46:38.991Z,7.90
2023-01-30T03:51:40.459Z,8.50
2023-01-30T03:56:41.893Z,7.35
2023-01-30T04:01:43.335Z,8.32
2023-01-30T04:06:44.913Z,8.15
2023-01-30T04:11:46.364Z,7.78
2023-01-30T04:16:47.862Z,7.07
2023-01-30T04:21:49.329Z,8.23
2023-01-30T04:26:50.751Z,5.13
2023-01-30T04:31:52.213Z,7.63
2023-01-30T04:36:53.672Z,7.78
2023-01-30T04:41:55.407Z,7.80
2023-01-30T04:46:56.948Z,7.38
2023-01-30T04:51:58.366Z,7.07
2023-01-30T04:56:59.860Z,7.95
2023-01-30T05:02:01.389Z,7.82
2023-01-30T05:07:02.904Z,8.27
2023-01-30T05:12:04.369Z,8.50
2023-01-30T05:17:05.829Z,7.25
2023-01-30T05:22:07.307Z,7.45
2023-01-30T05:27:08.754Z,7.93
2023-01-30T05:32:10.199Z,6.65
2023-01-30T05:37:11.628Z,7.65
2023-01-30T05:42:13.061Z,8.82
2023-01-30T05:47:14.709Z,8.63
2023-01-30T05:52:16.219Z,6.28
2023-01-30T05:57:17.691Z,7.07
2023-01-30T06:02:19.119Z,8.25
2023-01-30T06:07:20.530Z,7.45
2023-01-30T06:12:21.943Z,7.88
2023-01-30T06:17:23.407Z,6.07
2023-01-30T06:22:24.843Z,7.72
2023-01-30T06:27:26.269Z,7.65
2023-01-30T06:32:27.749Z,7.22
2023-01-30T06:37:29.178Z,7.90
2023-01-30T06:42:30.636Z,6.43
2023-01-30T06:47:32.092Z,9.10
2023-01-30T06:52:33.619Z,8.88
2023-01-30T06:57:35.100Z,7.57
2023-01-30T07:02:36.561Z,9.02
2023-01-30T07:07:37.989Z,8.95
2023-01-30T07:12:39.493Z,8.73
2023-01-30T07:17:40.920Z,8.00
2023-01-30T07:22:42.363Z,9.00
2023-01-30T07:27:43.825Z,9.90
2023-01-30T07:32:45.443Z,9.35
2023-01-30T07:37:46.881Z,10.20
2023-01-30T07:42:48.350Z,10.27
2023-01-30T07:47:49.844Z,10.38
2023-01-30T07:52:51.291Z,10.90
2023-01-30T07:57:52.743Z,9.23
2023-01-30T08:02:54.161Z,10.85
2023-01-30T08:07:55.678Z,11.05
2023-01-30T08:12:57.121Z,10.70
2023-01-30T08:17:58.631Z,8.40
2023-01-30T08:23:00.106Z,6.85
2023-01-30T08:28:01.570Z,9.25
2023-01-30T08:33:03.070Z,10.27
2023-01-30T08:38:04.515Z,8.68
2023-01-30T08:43:05.986Z,10.07
2023-01-30T08:48:07.460Z,8.75
2023-01-30T08:53:08.886Z,7.93
2023-01-30T08:58:10.575Z,8.73
2023-01-30T09:03:12.003Z,8.57
2023-01-30T09:08:13.430Z,7.72
2023-01-30T09:13:14.855Z,8.38
2023-01-30T09:18:16.319Z,6.63
2023-01-30T09:23:17.766Z,8.60
2023-01-30T09:28:19.229Z,7.15
2023-01-30T09:33:20.679Z,5.03
2023-01-30T09:38:22.174Z,7.07
2023-01-30T09:43:23.605Z,8.50
2023-01-30T09:48:25.083Z,6.50
2023-01-30T09:53:26.583Z,7.82
2023-01-30T09:58:28.046Z,8.18
2023-01-30T10:03:29.550Z,6.28
2023-01-30T10:08:31.021Z,6.18
2023-01-30T10:13:32.465Z,5.60
2023-01-30T10:18:33.894Z,5.65
2023-01-30T10:23:35.337Z,5.55
2023-01-30T10:28:36.814Z,6.70
2023-01-30T10:33:38.281Z,6.63
2023-01-30T10:38:39.771Z,6.20
2023-01-30T10:43:41.241Z,6.63
2023-01-30T10:48:46.080Z,7.28
2023-01-30T10:53:48.200Z,7.15
2023-01-30T10:58:49.671Z,7.35
2023-01-30T11:03:51.145Z,7.05
2023-01-30T11:08:52.612Z,6.72
2023-01-30T11:13:54.076Z,6.78
2023-01-30T11:24:17.036Z,6.90
2023-01-30T11:29:18.538Z,8.20
2023-01-30T11:34:19.989Z,7.13
2023-01-30T11:39:21.423Z,7.97
2023-01-30T11:44:22.888Z,8.50
2023-01-30T11:49:45.891Z,7.35
2023-01-30T11:54:45.803Z,6.50
2023-01-30T11:59:47.260Z,4.95
2023-01-30T12:04:48.733Z,4.88
2023-01-30T12:09:50.174Z,6.53
2023-01-30T12:14:51.655Z,4.07
2023-01-30T12:19:53.095Z,3.70
2023-01-30T12:24:54.544Z,3.00
2023-01-30T12:29:56.014Z,3.30
2023-01-30T12:34:57.478Z,3.05
2023-01-30T12:39:58.955Z,2.70
2023-01-30T12:45:00.469Z,2.72
2023-01-30T12:50:01.960Z,3.85
2023-01-30T12:55:03.450Z,3.30
2023-01-30T13:00:04.936Z,3.33
2023-01-30T13:05:06.406Z,3.30
2023-01-30T13:10:07.872Z,3.17
2023-01-30T13:15:09.332Z,3.22
2023-01-30T13:20:10.806Z,3.35
2023-01-30T13:25:12.322Z,3.00
2023-01-30T13:30:13.824Z,2.72
2023-01-30T13:35:15.307Z,2.33
2023-01-30T13:40:17.046Z,2.60
2023-01-30T13:45:18.844Z,2.53
2023-01-30T13:50:20.679Z,2.78
2023-01-30T13:55:22.367Z,2.58
2023-01-30T14:00:23.864Z,2.15
2023-01-30T14:05:34.403Z,2.83
2023-01-30T14:10:38.677Z,3.05
2023-01-30T14:15:40.108Z,2.97
2023-01-30T14:20:41.530Z,3.40
2023-01-30T14:25:43.033Z,2.50
2023-01-30T14:30:44.507Z,2.85
2023-01-30T14:35:45.969Z,3.85
2023-01-30T14:40:47.404Z,2.63
2023-01-30T14:45:48.814Z,3.30
2023-01-30T14:50:50.496Z,2.60
2023-01-30T14:55:51.928Z,3.25
2023-01-30T15:00:53.433Z,2.70
2023-01-30T15:05:54.879Z,2.70
2023-01-30T15:10:56.299Z,2.78
2023-01-30T15:15:57.948Z,2.13
2023-01-30T15:20:59.419Z,2.92
2023-01-30T15:26:00.889Z,1.80
2023-01-30T15:31:02.356Z,2.53
2023-01-30T15:36:03.812Z,2.58
2023-01-30T15:41:05.250Z,2.38
2023-01-30T15:46:06.857Z,2.13
2023-01-30T15:51:08.351Z,1.83
2023-01-30T15:56:09.793Z,1.77
2023-01-30T16:01:11.334Z,2.40
2023-01-30T16:06:13.850Z,2.45
2023-01-30T16:11:15.279Z,2.58
2023-01-30T16:16:16.743Z,2.42
2023-01-30T16:21:18.198Z,2.55
2023-01-30T16:26:19.693Z,2.95
2023-01-30T16:31:21.299Z,2.55
2023-01-30T16:36:22.791Z,3.58
2023-01-30T16:41:24.242Z,2.60
2023-01-30T16:46:25.727Z,2.90
2023-01-30T16:51:27.181Z,3.42
2023-01-30T16:56:28.707Z,2.53
2023-01-30T17:01:30.229Z,3.40
2023-01-30T17:06:31.833Z,2.47
2023-01-30T17:11:33.308Z,2.35
2023-01-30T17:16:34.812Z,2.17
2023-01-30T17:21:36.279Z,2.00
2023-01-30T17:26:39.671Z,2.42
2023-01-30T17:31:42.300Z,2.22
2023-01-30T17:36:43.852Z,2.90
2023-01-30T17:41:45.279Z,2.78
2023-01-30T17:46:46.702Z,2.30
2023-01-30T17:51:48.149Z,2.05
2023-01-30T17:56:49.591Z,2.15
2023-01-30T18:01:51.093Z,1.75
2023-01-30T18:06:52.557Z,2.83
2023-01-30T18:11:54.000Z,2.08
2023-01-30T18:16:55.545Z,2.63
2023-01-30T18:21:57.036Z,2.20
2023-01-30T18:27:01.441Z,2.38
2023-01-30T18:32:03.279Z,2.83
2023-01-30T18:37:04.734Z,2.33
2023-01-30T18:42:06.164Z,2.25
2023-01-30T18:47:07.624Z,2.53
2023-01-30T18:52:09.093Z,2.15
2023-01-30T18:57:11.557Z,2.67
2023-01-30T19:02:13.044Z,2.70
2023-01-30T19:07:14.625Z,3.35
2023-01-30T19:12:16.082Z,3.10
2023-01-30T19:17:17.520Z,3.10
2023-01-30T19:22:18.942Z,3.10
2023-01-30T19:27:20.368Z,2.25
2023-01-30T19:32:22.292Z,3.53
2023-01-30T19:37:23.844Z,3.28
2023-01-30T19:42:25.641Z,2.75
2023-01-30T19:47:27.308Z,3.47
2023-01-30T19:52:28.743Z,3.55
2023-01-30T19:57:30.206Z,3.33
2023-01-30T20:02:31.764Z,3.00
2023-01-30T20:07:33.299Z,2.60
2023-01-30T20:12:34.771Z,3.42
2023-01-30T20:17:36.242Z,3.42
2023-01-30T20:22:37.722Z,3.38
2023-01-30T20:27:39.178Z,2.80
2023-01-30T20:32:40.657Z,2.67
2023-01-30T20:37:42.100Z,2.67
2023-01-30T20:42:43.543Z,3.28
2023-01-30T20:47:45.011Z,3.08
2023-01-30T20:52:46.513Z,3.28
2023-01-30T20:57:47.996Z,3.55
2023-01-30T21:02:49.478Z,2.72
2023-01-30T21:07:50.953Z,3.88
2023-01-30T21:12:52.409Z,3.03
2023-01-30T21:17:53.853Z,2.80
2023-01-30T21:22:55.297Z,2.25
2023-01-30T21:27:56.726Z,2.58
2023-01-30T21:32:58.527Z,2.15
2023-01-30T21:37:59.966Z,2.42
2023-01-30T21:43:01.379Z,2.60
2023-01-30T21:48:02.888Z,2.55
2023-01-30T21:53:04.373Z,2.22
2023-01-30T21:58:05.844Z,2.63
2023-01-30T22:03:07.293Z,2.30
2023-01-30T22:08:08.759Z,2.40
2023-01-30T22:13:10.220Z,1.98
2023-01-30T22:18:11.684Z,1.95
2023-01-30T22:23:13.152Z,2.10
2023-01-30T22:28:14.600Z,2.15
2023-01-30T22:33:16.065Z,1.88
2023-01-30T22:38:17.514Z,1.52
2023-01-30T22:43:18.962Z,1.70
2023-01-30T22:48:20.427Z,1.65
2023-01-30T22:53:21.972Z,2.08
2023-01-30T22:58:23.440Z,2.33
2023-01-30T23:03:24.909Z,2.38
2023-01-30T23:08:26.626Z,1.98
2023-01-30T23:13:28.095Z,2.13
2023-01-30T23:18:29.567Z,2.40
2023-01-30T23:23:31.021Z,2.65
2023-01-30T23:28:32.459Z,2.00
2023-01-30T23:33:33.888Z,2.33
2023-01-30T23:38:35.503Z,2.15
2023-01-30T23:43:37.535Z,2.30
2023-01-30T23:48:39.041Z,2.08
2023-01-30T23:53:40.496Z,2.20
2023-01-30T23:58:41.956Z,2.33
